Time;durP1;ratioP1;P1;durP2;ratioP2;P2;SDS_P1;SDS_P2;PMS_P1;PMS_P2;Temp;Humidity;BMP_temperature;BMP_pressure;BME280_temperature;BME280_humidity;BME280_pressure;Samples;Min_cycle;Max_cycle;Signal;HPM_P1;HPM_P2
2021/10/09 00:00:54;;;;;;;8.65;4.62;;;;;;;16.27;39.42;102654.58;1721951;82;20998;-50
2021/10/09 00:03:20;;;;;;;15.25;5.58;;;;;;;16.26;39.15;102653.26;1737472;82;20987;-50
2021/10/09 00:05:47;;;;;;;14.95;5.30;;;;;;;16.25;39.37;102644.97;1738343;82;21014;-48
2021/10/09 00:08:16;;;;;;;18.05;5.45;;;;;;;16.24;39.24;102653.30;1738336;82;21003;-49
2021/10/09 00:10:43;;;;;;;20.35;5.53;;;;;;;16.21;39.35;102637.59;1737085;82;21038;-49
2021/10/09 00:13:10;;;;;;;13.43;4.97;;;;;;;16.21;39.64;102632.34;1729745;81;21027;-48
2021/10/09 00:15:37;;;;;;;14.20;5.25;;;;;;;16.22;40.01;102642.38;1717507;82;21051;-49
2021/10/09 00:18:04;;;;;;;13.78;5.60;;;;;;;16.21;39.72;102638.91;1726094;82;21051;-49
2021/10/09 00:20:32;;;;;;;12.37;5.20;;;;;;;16.21;39.76;102640.22;1725579;82;20999;-50
2021/10/09 00:22:59;;;;;;;13.95;6.53;;;;;;;16.21;40.24;102644.16;1732321;82;21047;-51
2021/10/09 00:25:25;;;;;;;12.35;5.85;;;;;;;16.19;40.71;102638.06;1729393;82;21043;-51
2021/10/09 00:27:52;;;;;;;9.45;5.70;;;;;;;16.16;40.72;102643.34;1726791;82;21094;-48
2021/10/09 00:30:19;;;;;;;17.52;6.70;;;;;;;16.14;40.98;102642.50;1727350;82;21030;-51
2021/10/09 00:32:45;;;;;;;11.10;5.55;;;;;;;16.12;40.90;102646.91;1723469;82;21047;-47
2021/10/09 00:35:12;;;;;;;12.43;5.65;;;;;;;16.11;41.19;102646.95;1728045;82;21059;-46
2021/10/09 00:37:40;;;;;;;12.95;5.67;;;;;;;16.10;41.39;102650.01;1728657;82;21110;-51
2021/10/09 00:40:08;;;;;;;12.10;6.12;;;;;;;16.09;41.40;102652.19;1729434;82;21058;-47
2021/10/09 00:42:35;;;;;;;14.95;6.58;;;;;;;16.09;41.56;102657.45;1723933;82;21562;-51
2021/10/09 00:45:03;;;;;;;13.45;5.85;;;;;;;16.07;41.48;102659.70;1719265;82;21549;-49
2021/10/09 00:47:31;;;;;;;11.08;5.83;;;;;;;16.06;41.48;102651.38;1730415;82;21058;-50
2021/10/09 00:49:57;;;;;;;13.75;5.95;;;;;;;16.03;41.32;102641.78;1727677;82;21019;-47
2021/10/09 00:52:25;;;;;;;12.00;5.33;;;;;;;16.02;41.35;102647.94;1727203;82;21019;-50
2021/10/09 00:54:52;;;;;;;12.53;5.17;;;;;;;16.02;41.50;102648.38;1727325;82;21483;-48
2021/10/09 00:57:19;;;;;;;11.55;4.60;;;;;;;16.03;41.52;102639.16;1708876;82;21491;-50
2021/10/09 00:59:46;;;;;;;11.03;4.75;;;;;;;16.02;41.09;102647.94;1711938;82;21069;-50
2021/10/09 01:02:12;;;;;;;13.70;5.10;;;;;;;16.03;41.04;102652.28;1733716;82;21015;-49
2021/10/09 01:04:39;;;;;;;13.78;5.08;;;;;;;16.03;41.00;102640.47;1727597;82;21007;-52
2021/10/09 01:07:07;;;;;;;12.90;4.85;;;;;;;16.02;40.98;102641.38;1717474;82;21491;-47
2021/10/09 01:09:36;;;;;;;12.35;5.10;;;;;;;16.04;41.30;102642.22;1723948;82;21042;-48
2021/10/09 01:12:05;;;;;;;9.45;4.67;;;;;;;16.05;41.42;102647.88;1730105;82;21015;-47
2021/10/09 01:14:32;;;;;;;11.50;4.58;;;;;;;16.06;41.40;102652.26;1726047;82;21074;-53
2021/10/09 01:16:59;;;;;;;10.20;4.72;;;;;;;16.05;41.27;102650.50;1723927;82;21039;-52
2021/10/09 01:19:27;;;;;;;11.80;4.08;;;;;;;16.05;41.13;102645.25;1727231;82;21046;-46
2021/10/09 01:21:54;;;;;;;13.45;5.03;;;;;;;16.06;41.08;102640.44;1727297;82;21015;-50
2021/10/09 01:24:23;;;;;;;8.38;4.00;;;;;;;16.06;40.96;102635.62;1728385;82;21063;-45
2021/10/09 01:26:50;;;;;;;10.78;4.37;;;;;;;16.07;41.35;102644.78;1730470;82;21012;-46
2021/10/09 01:29:19;;;;;;;11.03;4.28;;;;;;;16.07;41.42;102640.00;1727003;82;21054;-46
2021/10/09 01:31:48;;;;;;;11.40;4.12;;;;;;;16.06;41.26;102644.38;1725952;82;21015;-51
2021/10/09 01:34:22;;;;;;;11.20;4.33;;;;;;;16.06;41.28;102636.50;1727646;82;21054;-49
2021/10/09 01:36:50;;;;;;;19.55;5.20;;;;;;;16.05;41.30;102642.63;1657593;86;21001;-51
2021/10/09 01:39:18;;;;;;;16.57;4.60;;;;;;;16.04;41.21;102635.66;1657037;86;21519;-51
2021/10/09 01:41:49;;;;;;;10.08;4.70;;;;;;;16.04;41.25;102639.59;1586740;90;21062;-46
2021/10/09 01:44:16;;;;;;;10.40;5.62;;;;;;;16.02;41.45;102632.19;1626034;88;21047;-51
2021/10/09 01:46:45;;;;;;;12.98;5.70;;;;;;;16.01;41.73;102650.13;1627857;88;21033;-49
2021/10/09 01:49:12;;;;;;;9.25;4.47;;;;;;;16.01;41.82;102646.19;1626241;88;21580;-54
2021/10/09 01:51:39;;;;;;;13.35;4.55;;;;;;;16.00;41.55;102639.22;1622985;88;21569;-52
2021/10/09 01:54:08;;;;;;;10.58;4.45;;;;;;;15.99;41.64;102640.09;1626457;88;21033;-52
2021/10/09 01:56:35;;;;;;;14.80;4.95;;;;;;;15.98;41.68;102638.38;1625990;87;21147;-51
2021/10/09 01:59:01;;;;;;;9.85;4.70;;;;;;;15.98;41.96;102638.38;1627733;88;21079;-48
2021/10/09 02:01:33;;;;;;;10.50;4.70;;;;;;;15.99;41.90;102642.72;1576653;89;21130;-50
2021/10/09 02:04:01;;;;;;;9.78;4.65;;;;;;;15.98;42.09;102645.38;1576125;90;21073;-50
2021/10/09 02:06:28;;;;;;;11.18;4.50;;;;;;;15.98;41.96;102645.38;1577983;90;21125;-50
2021/10/09 02:08:57;;;;;;;10.05;4.35;;;;;;;15.95;41.89;102647.59;1577158;90;21058;-54
2021/10/09 02:11:33;;;;;;;13.38;3.92;;;;;;;15.96;41.73;102653.28;1574209;90;21490;-51
2021/10/09 02:14:03;;;;;;;11.73;4.45;;;;;;;15.95;41.95;102653.31;1573195;90;21141;-51
2021/10/09 02:16:51;;;;;;;8.95;4.03;;;;;;;15.92;41.99;102655.52;1583367;90;21574;-47
2021/10/09 02:26:50;;;;;;;12.40;5.00;;;;;;;15.90;42.37;102653.37;1580780;90;21127;-50
2021/10/09 02:29:17;;;;;;;10.55;4.92;;;;;;;15.89;42.49;102648.14;1576656;90;21057;-49
2021/10/09 02:31:45;;;;;;;7.50;4.58;;;;;;;15.87;42.54;102645.52;1578086;90;21081;-52
2021/10/09 02:34:14;;;;;;;12.78;4.53;;;;;;;15.85;42.93;102640.73;1619668;87;21024;-48
2021/10/09 02:36:40;;;;;;;10.25;4.83;;;;;;;15.87;43.21;102636.77;1628873;87;21040;-48
2021/10/09 02:39:08;;;;;;;13.55;4.92;;;;;;;15.86;43.62;102635.92;1627749;87;21115;-50
2021/10/09 02:41:35;;;;;;;9.05;4.35;;;;;;;15.83;43.81;102635.95;1639215;86;21076;-51
2021/10/09 02:44:06;;;;;;;11.18;4.03;;;;;;;15.82;44.23;102639.48;1624399;87;21029;-51
2021/10/09 02:46:34;;;;;;;12.13;4.45;;;;;;;15.82;44.75;102649.98;1593546;89;21093;-49
2021/10/09 02:49:00;;;;;;;11.70;4.35;;;;;;;15.82;45.08;102644.73;1629348;87;21075;-48
2021/10/09 02:51:27;;;;;;;12.45;4.17;;;;;;;15.79;44.77;102641.25;1637406;87;21027;-51
2021/10/09 02:53:54;;;;;;;11.00;5.17;;;;;;;15.76;44.77;102640.88;1637609;87;21098;-52
2021/10/09 02:56:20;;;;;;;13.53;4.75;;;;;;;15.74;44.61;102637.84;1634818;87;21534;-51
2021/10/09 02:58:47;;;;;;;11.73;4.12;;;;;;;15.70;44.76;102629.15;1709127;82;21038;-51
2021/10/09 03:01:15;;;;;;;13.62;4.35;;;;;;;15.67;44.72;102625.23;1717271;82;21010;-51
2021/10/09 03:03:42;;;;;;;13.00;5.22;;;;;;;15.65;44.76;102620.89;1728235;82;21054;-51
2021/10/09 03:06:09;;;;;;;14.28;5.00;;;;;;;15.61;44.71;102621.38;1728829;82;21075;-47
2021/10/09 03:08:35;;;;;;;12.30;4.28;;;;;;;15.57;44.72;102617.06;1729453;82;21059;-49
2021/10/09 03:11:02;;;;;;;9.35;4.15;;;;;;;15.54;44.53;102617.09;1730551;82;21002;-51
2021/10/09 03:13:29;;;;;;;8.83;4.97;;;;;;;15.52;44.63;102618.86;1734519;82;21605;-52
2021/10/09 03:15:56;;;;;;;13.20;4.85;;;;;;;15.52;44.76;102617.55;1725204;82;20994;-48
2021/10/09 03:18:23;;;;;;;11.03;5.45;;;;;;;15.50;44.61;102616.70;1736487;82;21049;-48
2021/10/09 03:20:50;;;;;;;10.20;4.72;;;;;;;15.48;44.43;102610.17;1737034;81;21569;-51
2021/10/09 03:23:16;;;;;;;20.50;4.95;;;;;;;15.45;44.45;102611.54;1737668;82;21038;-54
2021/10/09 03:25:43;;;;;;;10.45;4.80;;;;;;;15.45;44.57;102617.22;1729438;82;21109;-48
2021/10/09 03:28:11;;;;;;;9.73;4.92;;;;;;;15.44;44.50;102612.41;1735117;81;20978;-51
2021/10/09 03:30:38;;;;;;;11.53;5.22;;;;;;;15.44;44.58;102618.09;1736698;81;21492;-51
2021/10/09 03:33:05;;;;;;;10.90;5.15;;;;;;;15.43;44.67;102615.06;1738798;82;20975;-50
2021/10/09 03:35:32;;;;;;;11.43;6.22;;;;;;;15.43;44.35;102608.50;1738538;82;21526;-50
2021/10/09 03:37:59;;;;;;;15.65;7.03;;;;;;;15.40;44.44;102618.98;1742418;82;21116;-48
2021/10/09 03:40:26;;;;;;;16.85;6.62;;;;;;;15.39;44.87;102622.52;1736972;82;21026;-48
2021/10/09 03:43:02;;;;;;;14.10;6.53;;;;;;;15.37;44.77;102615.95;1737595;82;21010;-48
2021/10/09 03:48:03;;;;;;;13.72;6.50;;;;;;;15.35;44.68;102626.06;1741400;82;21022;-52
2021/10/09 03:52:22;;;;;;;14.20;6.90;;;;;;;15.34;44.53;102625.19;1733333;82;21011;-51
2021/10/09 03:52:51;;;;;;;14.73;7.50;;;;;;;15.32;44.51;102626.08;1731533;82;21014;-53
2021/10/09 03:55:19;;;;;;;14.93;6.33;;;;;;;15.31;44.85;102623.05;1735135;82;21048;-52
2021/10/09 03:57:48;;;;;;;12.03;6.92;;;;;;;15.28;44.97;102629.63;1700400;83;21045;-51
2021/10/09 04:00:20;;;;;;;9.80;6.22;;;;;;;15.28;44.86;102628.31;1694040;84;21019;-53
2021/10/09 04:02:48;;;;;;;14.80;7.30;;;;;;;15.26;44.78;102629.66;1703077;84;21093;-51
2021/10/09 04:05:16;;;;;;;18.73;8.30;;;;;;;15.24;44.94;102626.61;1694414;84;21527;-51
2021/10/09 04:07:42;;;;;;;18.10;7.75;;;;;;;15.21;44.80;102635.81;1696906;84;21038;-51
2021/10/09 04:10:12;;;;;;;18.00;8.45;;;;;;;15.19;44.85;102634.95;1700738;84;21032;-50
2021/10/09 04:12:39;;;;;;;18.48;8.20;;;;;;;15.16;44.98;102641.13;1701172;84;21070;-48
2021/10/09 04:15:08;;;;;;;13.53;8.00;;;;;;;15.13;44.91;102635.91;1705600;84;21078;-47
2021/10/09 04:17:37;;;;;;;13.32;7.72;;;;;;;15.12;44.97;102635.93;1697850;84;21574;-53
2021/10/09 04:20:06;;;;;;;14.80;7.42;;;;;;;15.13;44.87;102644.20;1706536;84;21046;-52
2021/10/09 04:22:33;;;;;;;14.33;7.22;;;;;;;15.11;44.70;102638.98;1700222;84;21164;-50
2021/10/09 04:24:59;;;;;;;15.88;7.95;;;;;;;15.10;44.90;102640.33;1697770;84;21082;-51
2021/10/09 04:27:27;;;;;;;16.50;8.03;;;;;;;15.08;44.80;102644.72;1700820;84;21046;-53
2021/10/09 04:29:54;;;;;;;15.30;7.65;;;;;;;15.05;44.78;102642.11;1700035;84;21066;-51
2021/10/09 04:32:20;;;;;;;16.35;8.23;;;;;;;15.04;44.68;102645.63;1698503;84;21046;-51
2021/10/09 04:34:48;;;;;;;10.85;7.10;;;;;;;15.01;44.49;102640.41;1702265;84;21066;-50
2021/10/09 04:37:15;;;;;;;11.00;7.25;;;;;;;14.99;44.67;102646.11;1697883;84;21062;-51
2021/10/09 04:39:43;;;;;;;15.72;8.35;;;;;;;14.98;44.70;102645.70;1705793;84;21566;-48
2021/10/09 04:42:09;;;;;;;14.93;8.58;;;;;;;14.97;44.61;102643.95;1694656;84;20987;-48
2021/10/09 04:44:37;;;;;;;17.85;9.00;;;;;;;14.94;44.40;102650.55;1704329;84;21058;-48
2021/10/09 04:47:05;;;;;;;20.68;9.53;;;;;;;14.90;44.62;102658.86;1706636;84;21038;-51
2021/10/09 04:49:33;;;;;;;17.82;9.03;;;;;;;14.90;44.84;102658.02;1700010;84;21556;-53
2021/10/09 04:52:00;;;;;;;18.42;8.58;;;;;;;14.90;44.74;102664.56;1701665;84;21019;-49
2021/10/09 04:54:27;;;;;;;14.83;8.50;;;;;;;14.88;44.73;102665.02;1712466;82;21089;-51
2021/10/09 04:56:55;;;;;;;15.50;8.70;;;;;;;14.87;44.93;102668.51;1737928;81;21010;-51
2021/10/09 04:59:22;;;;;;;15.50;8.35;;;;;;;14.87;44.96;102673.75;1734274;82;21038;-50
2021/10/09 05:01:49;;;;;;;18.50;8.70;;;;;;;14.89;44.84;102666.74;1725971;82;21038;-50
2021/10/09 05:04:16;;;;;;;10.75;8.43;;;;;;;14.88;44.62;102672.88;1737217;82;20999;-48
2021/10/09 05:06:45;;;;;;;15.53;8.08;;;;;;;14.87;44.70;102672.01;1738205;82;21097;-51
2021/10/09 05:09:12;;;;;;;17.57;8.15;;;;;;;14.87;44.84;102672.01;1738431;82;21466;-51
2021/10/09 05:11:38;;;;;;;14.15;8.80;;;;;;;14.88;44.89;102669.80;1735915;82;21010;-50
2021/10/09 05:14:07;;;;;;;17.30;8.73;;;;;;;14.87;44.96;102665.89;1731777;82;21094;-47
2021/10/09 05:16:33;;;;;;;13.65;8.35;;;;;;;14.87;44.88;102665.89;1718769;82;21023;-50
2021/10/09 05:19:02;;;;;;;14.38;7.92;;;;;;;14.87;44.88;102664.58;1728431;82;21046;-51
2021/10/09 05:21:30;;;;;;;16.32;8.05;;;;;;;14.86;44.56;102657.62;1730145;82;21075;-48
2021/10/09 05:23:57;;;;;;;15.95;7.92;;;;;;;14.84;44.54;102652.36;1726386;82;21433;-52
2021/10/09 05:26:24;;;;;;;17.95;7.95;;;;;;;14.82;44.40;102655.91;1729494;82;21022;-52
2021/10/09 05:28:51;;;;;;;16.55;8.65;;;;;;;14.79;44.30;102659.84;1727172;82;21491;-49
2021/10/09 05:31:31;;;;;;;16.73;9.05;;;;;;;14.76;44.33;102655.93;1724531;82;21074;-51
2021/10/09 05:33:55;;;;;;;12.58;8.13;;;;;;;14.74;44.32;102659.01;1724097;82;20999;-49
2021/10/09 05:36:23;;;;;;;13.15;7.45;;;;;;;14.72;44.40;102660.77;1726900;82;21054;-51
2021/10/09 05:38:51;;;;;;;14.43;8.30;;;;;;;14.72;44.23;102663.39;1723107;82;21042;-47
2021/10/09 05:41:18;;;;;;;19.60;8.65;;;;;;;14.69;44.21;102669.09;1729437;82;21518;-47
2021/10/09 05:43:47;;;;;;;14.45;7.92;;;;;;;14.70;44.41;102671.27;1728493;82;21034;-51
2021/10/09 05:46:14;;;;;;;14.25;7.80;;;;;;;14.71;44.28;102666.91;1715905;82;21008;-48
2021/10/09 05:48:42;;;;;;;23.35;8.38;;;;;;;14.69;44.01;102676.95;1728035;82;21027;-51
2021/10/09 05:56:48;;;;;;;12.47;7.03;;;;;;;14.66;44.14;102683.55;1726405;82;21081;-49
2021/10/09 06:37:49;;;;;;;13.75;6.08;;;;;;;14.61;43.76;102668.28;1696267;83;21091;-52
2021/10/09 06:47:54;;;;;;;15.55;5.92;;;;;;;14.56;43.38;102668.78;1692194;83;20967;-50
2021/10/09 06:50:59;;;;;;;12.55;5.80;;;;;;;14.52;43.50;102664.45;1685168;83;21523;-50
2021/10/09 07:01:22;;;;;;;16.73;6.00;;;;;;;14.46;43.85;102671.48;1684136;83;21110;-51
2021/10/09 07:03:50;;;;;;;11.28;5.65;;;;;;;14.45;44.06;102678.45;1702619;83;21542;-51
2021/10/09 07:06:19;;;;;;;16.20;6.05;;;;;;;14.46;43.85;102691.13;1694323;83;21609;-51
2021/10/09 07:08:57;;;;;;;17.90;6.22;;;;;;;14.46;43.78;102684.58;1629072;87;21081;-52
2021/10/09 07:11:37;;;;;;;13.43;6.50;;;;;;;14.45;43.86;102694.17;1547770;92;21039;-50
2021/10/09 07:14:06;;;;;;;12.43;5.53;;;;;;;14.45;43.91;102691.55;1538379;92;21515;-50
2021/10/09 07:16:34;;;;;;;16.95;5.72;;;;;;;14.45;43.85;102695.48;1546758;92;21154;-52
2021/10/09 07:19:03;;;;;;;14.75;6.22;;;;;;;14.45;43.85;102700.72;1528668;92;21071;-51
2021/10/09 07:21:32;;;;;;;;;;;;;;;14.46;43.76;102700.29;1548503;92;21050;-51
2021/10/09 07:23:59;;;;;;;10.35;5.40;;;;;;;14.45;43.62;102707.70;1542038;92;20411;-51
2021/10/09 07:26:26;;;;;;;13.58;5.83;;;;;;;14.41;43.41;102705.55;1548315;92;21058;-51
2021/10/09 07:28:52;;;;;;;10.95;5.62;;;;;;;14.39;43.66;102704.70;1549286;92;21590;-53
2021/10/09 07:31:19;;;;;;;10.68;5.05;;;;;;;14.37;43.47;102703.84;1543559;92;21128;-51
2021/10/09 07:33:46;;;;;;;13.88;6.45;;;;;;;14.35;43.40;102705.59;1544227;92;21002;-50
2021/10/09 07:36:12;;;;;;;15.32;5.75;;;;;;;14.36;43.44;102708.63;1548816;92;21542;-50
2021/10/09 07:38:39;;;;;;;15.18;6.62;;;;;;;14.37;43.42;102709.08;1582928;89;21066;-52
2021/10/09 07:41:06;;;;;;;12.90;6.08;;;;;;;14.39;43.56;102709.94;1587062;89;21594;-50
2021/10/09 07:43:33;;;;;;;11.25;5.30;;;;;;;14.40;43.59;102711.69;1598260;89;21023;-52
2021/10/09 07:46:00;;;;;;;14.70;6.05;;;;;;;14.40;43.52;102710.38;1582993;89;21504;-50
2021/10/09 07:48:26;;;;;;;17.15;5.80;;;;;;;14.41;43.69;102709.48;1586748;89;21139;-51
2021/10/09 07:50:55;;;;;;;12.55;5.55;;;;;;;14.43;43.41;102709.03;1591826;90;21058;-54
2021/10/09 07:53:22;;;;;;;16.25;5.22;;;;;;;14.43;43.36;102708.16;1572462;89;21026;-51
2021/10/09 07:55:49;;;;;;;11.48;5.15;;;;;;;14.43;43.48;102714.27;1585598;90;21054;-52
2021/10/09 07:58:15;;;;;;;13.83;5.78;;;;;;;14.44;43.46;102711.22;1588046;89;21118;-50
2021/10/09 08:00:42;;;;;;;16.25;6.00;;;;;;;14.44;43.54;102714.72;1596100;90;21122;-53
2021/10/09 08:03:09;;;;;;;13.55;6.62;;;;;;;14.44;43.35;102716.02;1601346;90;21130;-52
2021/10/09 08:05:38;;;;;;;15.48;7.83;;;;;;;14.41;43.19;102710.79;1637392;82;21597;-50
2021/10/09 08:08:05;;;;;;;13.75;5.83;;;;;;;14.41;43.28;102713.41;1739100;82;21478;-51
2021/10/09 08:10:31;;;;;;;15.48;5.67;;;;;;;14.41;43.16;102712.53;1742961;82;21494;-53
2021/10/09 08:12:58;;;;;;;14.10;5.42;;;;;;;14.40;42.99;102710.38;1740942;82;21051;-50
2021/10/09 08:15:25;;;;;;;9.63;4.97;;;;;;;14.40;43.05;102716.92;1732224;82;21081;-51
2021/10/09 08:17:51;;;;;;;15.23;5.20;;;;;;;14.39;43.02;102717.79;1732817;82;21493;-51
2021/10/09 08:20:18;;;;;;;12.93;5.35;;;;;;;14.39;43.10;102716.48;1724666;82;21035;-51
2021/10/09 08:22:57;;;;;;;14.85;5.40;;;;;;;14.38;42.85;102712.57;1725731;82;21054;-52
2021/10/09 08:38:52;;;;;;;12.75;4.92;;;;;;;14.39;43.34;102730.01;1730462;82;21061;-51
2021/10/09 08:41:20;;;;;;;13.05;5.33;;;;;;;14.42;43.14;102728.27;1729041;82;21531;-54
2021/10/09 08:43:50;;;;;;;10.68;5.25;;;;;;;14.44;42.82;102726.50;1730863;82;21058;-52
2021/10/09 08:46:18;;;;;;;17.20;6.90;;;;;;;14.46;42.95;102722.13;1731808;82;20979;-50
2021/10/09 08:48:49;;;;;;;11.70;5.17;;;;;;;14.49;42.70;102724.70;1731222;82;21019;-50
2021/10/09 08:51:26;;;;;;;15.25;5.22;;;;;;;14.52;42.62;102729.94;1729185;82;21584;-47
2021/10/09 08:53:54;;;;;;;15.00;5.30;;;;;;;14.54;42.60;102725.56;1647932;86;21054;-49
2021/10/09 08:56:45;;;;;;;18.40;4.55;;;;;;;14.56;42.59;102735.58;1653365;86;21586;-48
2021/10/09 08:59:24;;;;;;;11.90;4.50;;;;;;;14.59;42.46;102725.06;1654011;86;21062;-51
2021/10/09 09:02:08;;;;;;;15.40;5.33;;;;;;;14.62;42.69;102723.75;1627931;86;21109;-50
2021/10/09 09:26:50;;;;;;;10.58;4.58;;;;;;;14.93;41.96;102714.32;1603563;88;21558;-51
2021/10/09 09:35:05;;;;;;;13.43;5.05;;;;;;;14.99;41.86;102719.52;1554563;91;21077;-50
2021/10/09 09:40:03;;;;;;;16.60;4.67;;;;;;;15.05;42.21;102728.63;1522526;93;21570;-48
2021/10/09 09:42:30;;;;;;;11.50;4.80;;;;;;;15.11;41.94;102732.50;1522249;93;21599;-49
2021/10/09 09:45:00;;;;;;;14.45;4.87;;;;;;;15.11;41.88;102728.58;1523191;93;21113;-51
2021/10/09 09:47:40;;;;;;;19.92;5.22;;;;;;;15.14;41.63;102724.63;1525450;93;21064;-49
2021/10/09 09:50:09;;;;;;;10.35;4.95;;;;;;;15.16;41.71;102729.41;1524466;93;21127;-50
2021/10/09 09:52:39;;;;;;;17.87;5.08;;;;;;;15.20;41.97;102725.88;1584301;89;21009;-49
2021/10/09 09:55:08;;;;;;;16.80;5.92;;;;;;;15.26;41.92;102732.38;1555984;90;21694;-51
2021/10/09 09:57:36;;;;;;;13.93;4.90;;;;;;;15.31;41.75;102730.59;1542509;92;21551;-49
2021/10/09 10:00:09;;;;;;;18.30;7.15;;;;;;;15.35;41.50;102727.05;1552362;91;21074;-49
2021/10/09 10:02:51;;;;;;;21.12;7.62;;;;;;;15.36;41.48;102735.33;1569812;91;21103;-51
2021/10/09 10:05:22;;;;;;;18.27;5.08;;;;;;;15.38;41.33;102740.11;1563591;92;21042;-50
2021/10/09 10:07:49;;;;;;;16.05;4.00;;;;;;;15.39;41.12;102737.47;1598269;89;21553;-50
2021/10/09 10:10:16;;;;;;;18.15;5.72;;;;;;;15.42;41.02;102749.29;1599038;89;21029;-52
2021/10/09 10:12:46;;;;;;;16.35;6.58;;;;;;;15.45;41.05;102753.64;1615324;88;21552;-49
2021/10/09 10:15:13;;;;;;;16.05;4.78;;;;;;;15.46;40.90;102752.74;1636398;86;21648;-51
2021/10/09 10:17:45;;;;;;;12.60;4.60;;;;;;;15.47;40.72;102759.75;1665168;86;21005;-49
2021/10/09 10:20:14;;;;;;;15.60;4.62;;;;;;;15.48;40.72;102757.53;1656649;86;21537;-49
2021/10/09 10:25:29;;;;;;;9.58;4.67;;;;;;;15.49;40.68;102751.41;1630761;88;21061;-51
2021/10/09 10:28:04;;;;;;;12.47;4.35;;;;;;;15.52;40.68;102750.52;1585304;89;21583;-51
2021/10/09 10:30:39;;;;;;;14.47;4.45;;;;;;;15.54;40.62;102752.22;1600731;89;21038;-48
2021/10/09 10:33:12;;;;;;;12.80;4.60;;;;;;;15.57;40.57;102752.20;1602782;89;21057;-49
2021/10/09 10:35:46;;;;;;;12.37;5.15;;;;;;;15.58;40.60;102749.98;1601342;89;21042;-51
2021/10/09 10:38:25;;;;;;;16.12;6.37;;;;;;;15.61;40.54;102749.09;1598312;89;21034;-51
2021/10/09 10:40:59;;;;;;;11.75;5.35;;;;;;;15.62;40.35;102753.00;1599692;89;21103;-48
2021/10/09 10:43:44;;;;;;;10.90;4.62;;;;;;;15.64;40.51;102755.16;1553834;92;21120;-50
2021/10/09 10:46:32;;;;;;;15.55;4.97;;;;;;;15.68;40.40;102754.27;1596801;89;21070;-52
2021/10/09 10:51:47;;;;;;;;;;;;;;;15.70;40.09;102759.06;1609617;87;21007;-48
2021/10/09 10:57:03;;;;;;;15.28;4.95;;;;;;;15.71;40.04;102758.16;1608971;89;21082;-51
2021/10/09 10:59:59;;;;;;;16.40;4.65;;;;;;;15.74;40.51;102764.70;1606365;87;21073;-49
2021/10/09 11:02:37;;;;;;;16.82;5.08;;;;;;;15.80;40.77;102759.81;1606686;89;21066;-50
2021/10/09 11:05:13;;;;;;;13.78;4.60;;;;;;;15.87;40.12;102761.03;1605861;89;21024;-49
2021/10/09 11:07:43;;;;;;;11.78;4.22;;;;;;;15.94;40.05;102753.95;1605951;89;21038;-48
2021/10/09 11:10:18;;;;;;;15.70;4.70;;;;;;;15.99;39.76;102764.81;1609162;89;21006;-49
2021/10/09 11:12:50;;;;;;;10.15;3.95;;;;;;;16.03;39.66;102748.13;1609982;89;21102;-53
2021/10/09 11:17:59;;;;;;;18.45;4.20;;;;;;;16.11;40.38;102756.81;1575016;90;21022;-51
2021/10/09 11:20:28;;;;;;;10.28;4.15;;;;;;;16.16;39.56;102754.98;1581664;90;21671;-51
2021/10/09 11:22:59;;;;;;;11.85;4.25;;;;;;;16.18;39.42;102758.89;1627764;88;21569;-51
2021/10/09 11:25:45;;;;;;;18.15;5.10;;;;;;;16.21;39.28;102755.80;1667023;84;21137;-51
2021/10/09 11:28:21;;;;;;;15.40;5.20;;;;;;;16.24;39.23;102757.05;1630326;88;21546;-55
2021/10/09 11:30:47;;;;;;;17.07;4.35;;;;;;;16.28;39.01;102763.13;1646358;86;21010;-52
2021/10/09 11:33:14;;;;;;;15.68;4.60;;;;;;;16.28;39.03;102773.63;1680519;84;21055;-49
2021/10/09 11:35:41;;;;;;;18.00;4.37;;;;;;;16.32;38.95;102773.17;1630415;88;21495;-48
2021/10/09 11:38:27;;;;;;;16.40;4.55;;;;;;;16.35;38.64;102773.98;1632291;88;21082;-53
2021/10/09 11:41:01;;;;;;;17.40;4.50;;;;;;;16.41;38.53;102782.22;1652410;86;21060;-51
2021/10/09 11:46:52;;;;;;;15.93;4.37;;;;;;;16.46;38.39;102793.55;1683325;84;20421;-50
2021/10/09 11:55:20;;;;;;;9.25;3.75;;;;;;;16.47;38.57;102796.58;1536382;92;21633;-52
2021/10/09 11:57:47;;;;;;;16.57;4.83;;;;;;;16.47;38.01;102788.27;1533692;92;21053;-49
2021/10/09 12:00:37;;;;;;;14.35;4.15;;;;;;;16.45;37.74;102802.31;1534794;92;21559;-50
2021/10/09 12:03:30;;;;;;;13.78;4.58;;;;;;;16.41;38.10;102790.98;1497687;95;21086;-51
2021/10/09 12:08:51;;;;;;;18.60;5.20;;;;;;;16.44;38.53;102788.33;1412713;100;21118;-49
2021/10/09 12:11:24;;;;;;;14.30;5.40;;;;;;;16.47;37.93;102783.45;1433834;98;21217;-49
2021/10/09 12:14:00;;;;;;;8.08;3.65;;;;;;;16.47;37.63;102784.76;1435839;98;21132;-48
2021/10/09 12:16:39;;;;;;;14.53;4.50;;;;;;;16.46;37.67;102779.97;1441186;98;21192;-48
2021/10/09 12:19:09;;;;;;;11.60;4.33;;;;;;;16.45;37.75;102781.28;1466781;96;21620;-49
2021/10/09 12:21:39;;;;;;;11.05;4.28;;;;;;;16.46;37.61;102783.92;1469975;96;21698;-48
2021/10/09 12:24:15;;;;;;;8.80;3.62;;;;;;;16.48;37.87;102781.26;1472769;96;21052;-49
2021/10/09 12:26:43;;;;;;;13.68;4.75;;;;;;;16.50;37.75;102785.64;1426515;100;21202;-50
2021/10/09 12:29:17;;;;;;;9.98;3.87;;;;;;;16.53;37.58;102787.33;1426084;100;21668;-50
2021/10/09 12:31:45;;;;;;;12.78;4.20;;;;;;;16.56;37.50;102792.56;1423292;100;21568;-52
2021/10/09 12:34:33;;;;;;;13.32;4.20;;;;;;;16.57;37.39;102789.06;1425637;100;21168;-50
2021/10/09 12:37:20;;;;;;;12.30;4.40;;;;;;;16.60;37.81;102794.25;1426790;100;21080;-51
2021/10/09 12:40:06;;;;;;;8.65;3.27;;;;;;;16.60;37.70;102787.69;1407831;101;21613;-51
2021/10/09 12:42:33;;;;;;;14.23;3.90;;;;;;;16.59;37.89;102791.22;1405576;101;21096;-51
2021/10/09 12:45:01;;;;;;;11.53;3.62;;;;;;;16.61;37.99;102785.49;1400167;101;21124;-49
2021/10/09 12:47:29;;;;;;;11.70;4.00;;;;;;;16.63;37.66;102786.34;1376805;101;21178;-52
2021/10/09 12:49:56;;;;;;;6.92;3.30;;;;;;;16.64;37.47;102780.17;1431613;99;21160;-50
2021/10/09 12:52:22;;;;;;;10.13;3.37;;;;;;;16.61;37.36;102782.86;1492539;93;21111;-50
2021/10/09 12:54:49;;;;;;;12.00;4.10;;;;;;;16.58;37.46;102781.14;1499378;93;21064;-49
2021/10/09 12:57:15;;;;;;;8.25;3.83;;;;;;;16.57;37.53;102778.55;1497314;94;21121;-49
2021/10/09 12:59:42;;;;;;;11.10;3.70;;;;;;;16.54;37.55;102776.83;1497279;93;21094;-50
2021/10/09 13:02:09;;;;;;;9.93;4.35;;;;;;;16.55;37.77;102775.07;1499242;95;21107;-51
2021/10/09 13:04:37;;;;;;;12.18;3.95;;;;;;;16.57;38.01;102770.66;1502766;92;21077;-54
2021/10/09 13:07:05;;;;;;;11.65;3.80;;;;;;;16.55;37.90;102769.34;1531652;92;21072;-51
2021/10/09 13:09:32;;;;;;;15.90;3.70;;;;;;;16.56;37.73;102776.80;1552918;90;21075;-50
2021/10/09 13:12:03;;;;;;;13.58;3.72;;;;;;;16.56;37.90;102776.80;1589976;88;21607;-49
2021/10/09 13:14:29;;;;;;;14.30;3.70;;;;;;;16.56;37.86;102780.30;1592889;89;21117;-50
2021/10/09 13:16:56;;;;;;;16.23;4.00;;;;;;;16.57;38.05;102775.92;1622873;88;21223;-50
2021/10/09 13:19:22;;;;;;;12.60;3.85;;;;;;;16.57;37.79;102770.66;1598079;89;21044;-53
2021/10/09 13:21:49;;;;;;;14.90;3.37;;;;;;;16.56;37.74;102767.59;1620179;88;20980;-50
2021/10/09 13:24:16;;;;;;;13.75;3.90;;;;;;;16.58;37.67;102772.38;1699460;82;21026;-49
2021/10/09 13:26:42;;;;;;;8.40;2.80;;;;;;;16.59;37.45;102766.25;1735216;82;20960;-51
2021/10/09 13:29:09;;;;;;;10.05;3.47;;;;;;;16.58;37.55;102765.37;1729321;82;21031;-51
2021/10/09 13:31:36;;;;;;;10.32;4.28;;;;;;;16.59;37.93;102768.87;1726518;82;20983;-50
2021/10/09 13:34:03;;;;;;;8.90;3.65;;;;;;;16.64;37.36;102767.03;1731104;82;21031;-52
2021/10/09 13:36:29;;;;;;;11.78;3.77;;;;;;;16.65;37.30;102773.58;1734283;82;20939;-51
2021/10/09 13:38:56;;;;;;;13.72;3.77;;;;;;;16.67;37.25;102773.58;1723417;82;21013;-52
2021/10/09 13:41:23;;;;;;;10.82;3.77;;;;;;;16.69;37.40;102771.79;1724506;82;20960;-50
2021/10/09 13:43:52;;;;;;;11.00;3.55;;;;;;;16.71;37.44;102773.95;1724298;82;21047;-50
2021/10/09 13:46:20;;;;;;;7.85;3.75;;;;;;;16.71;37.02;102774.80;1725044;82;21512;-50